Trementina, NM

12:44 AM MST on February 28, 2017 (GMT -0700)
Conchas Dam | | Change Station
Active Advisory: Wind Advisory

Elev 4268 ft 35.36 °N, 104.22 °W | Updated 21 seconds ago

Partly Cloudy
Partly Cloudy
50.9 °F
Feels Like 50.9 °F
N
4.0
Wind Variable Wind from SSW
Gusts 9.0 mph

Today
High -- | Low -- °F
--% Chance of Precip.
Yesterday
High -- | Low -- °F
Precip. -- in
Pressure 29.69 in
Visibility 10.0 miles
Clouds Clear
Dew Point 24 °F
Humidity 35%
Rainfall 0.00 in
Snow Depth Not available.
6:28 AM 5:52 PM
Waxing Crescent, 4% visible
METAR KTCC 280653Z AUTO 25010KT 10SM CLR 12/M08 A2980 RMK AO2 SLP052 T01171078 402221006
Pressure 29.69 in
Visibility 10.0 miles
Clouds Clear
Dew Point 24 °F
Humidity 35%
Rainfall 0.00 in
Snow Depth Not available.
6:28 AM 5:52 PM
Waxing Crescent, 4% visible
METAR KTCC 280653Z AUTO 25010KT 10SM CLR 12/M08 A2980 RMK AO2 SLP052 T01171078 402221006

Get Your Daily Forecast Email!

Thanks for signing up!

Be on the lookout for a verification email in your inbox.

You'll start receiving the daily forecast at 8 AM.

×

10-Day Weather Forecast

Almanac

Astronomy

Feb. 28, 2017 Rise Set
Actual Time
Civil Twilight
Nautical Twilight
Astronomical Twilight
Moon
Length of Visible Light
Length of Day
Tomorrow will be .
, % of the Moon is Illuminated

Today's Extremes

State Highs State Lows

Community

WunderPhotos

Upload Photos

1,962,540 photos uploaded!

WunderBlog® & News

Nearby

Air Quality

  Air Quality AQ Index Pollutant
Not available.

Snow Depth

Station Depth Elevation

Earthquake Activity

City Distance Mag. Time & Date
Minimum magnitude displayed is 2.5.

Coastal Water Temperatures

Place Temperature

Stations

Nearby Weather Stations

Station Location Temp. Windchill Dew Point Humidity Wind Precip. Elev Updated Type
                   

Watches & Warnings

Wind Advisory
Issued: 5:01 PM MST Feb. 27, 2017 – National Weather Service

... Wind Advisory in effect from 10 am to 7 PM MST Tuesday...

The National Weather Service in Albuquerque has issued a Wind
Advisory, which is in effect from 10 am to 7 PM MST Tuesday.

* Location... middle and lower Rio Grande Valley, west Central
Highlands and the northeast plains.

* Winds... southwest 25 to 35 mph with gusts to near 45 mph,
shifting west 30 to 35 mph with occasional gusts to near 50 mph
around mid day Tuesday.

* Timing... winds increasing through the morning hours and peaking
around mid day with the passage of a cold front. Winds
decreasing Tuesday evening.

* Visibility... occasionally reduced to between 3 and 5 miles in
blowing dust or blowing snow mid to late day Tuesday.

* Local impacts... hazardous Crosswinds will impact north-south
oriented roadways, such as Interstate 25 between Socorro and
Albuquerque. Lightweight objects may become airborne.

Precautionary/preparedness actions...

Motorists should exercise caution while travelling. Sudden gusts
of wind may cause you to lose control of your vehicle. Extra
attention should be given to cross winds.